createdAt,value
2017-01-21T00:00:27.784Z,1030.98
2017-01-21T00:01:36.774Z,1030.95
2017-01-21T00:02:45.773Z,1030.93
2017-01-21T00:03:54.752Z,1030.93
2017-01-21T00:05:03.739Z,1030.89
2017-01-21T00:06:12.739Z,1030.91
2017-01-21T00:07:21.739Z,1030.91
2017-01-21T00:08:30.723Z,1030.89
2017-01-21T00:09:39.721Z,1030.88
2017-01-21T00:10:48.707Z,1030.9
2017-01-21T00:11:57.692Z,1030.92
2017-01-21T00:13:06.680Z,1030.88
2017-01-21T00:14:15.675Z,1030.84
2017-01-21T00:15:24.676Z,1030.83
2017-01-21T00:16:33.674Z,1030.81
2017-01-21T00:17:42.655Z,1030.83
2017-01-21T00:18:51.656Z,1030.82
2017-01-21T00:20:00.657Z,1030.79
2017-01-21T00:21:09.636Z,1030.77
2017-01-21T00:22:18.627Z,1030.75
2017-01-21T00:23:27.611Z,1030.83
2017-01-21T00:24:36.615Z,1030.84
2017-01-21T00:25:45.619Z,1030.82
2017-01-21T00:26:54.609Z,1030.78
2017-01-21T00:28:03.594Z,1030.84
2017-01-21T00:29:12.583Z,1030.84
2017-01-21T00:30:21.578Z,1030.86
2017-01-21T00:31:30.558Z,1030.9
2017-01-21T00:32:39.544Z,1030.89
2017-01-21T00:33:48.557Z,1030.89
2017-01-21T00:34:57.575Z,1030.87
2017-01-21T00:36:06.553Z,1030.85
2017-01-21T00:37:15.588Z,1030.84
2017-01-21T00:38:24.588Z,1030.81
2017-01-21T00:39:33.584Z,1030.81
2017-01-21T00:40:42.578Z,1030.84
2017-01-21T00:41:51.558Z,1030.82
2017-01-21T00:43:00.548Z,1030.8
2017-01-21T00:44:09.537Z,1030.81
2017-01-21T00:45:18.520Z,1030.8
2017-01-21T00:46:27.505Z,1030.81
2017-01-21T00:47:36.496Z,1030.85
2017-01-21T00:48:45.490Z,1030.87
2017-01-21T00:49:54.470Z,1030.83
2017-01-21T00:51:03.449Z,1030.84
2017-01-21T00:52:12.434Z,1030.87
2017-01-21T00:53:21.418Z,1030.82
2017-01-21T00:54:30.403Z,1030.84
2017-01-21T00:55:39.393Z,1030.86
2017-01-21T00:56:48.390Z,1030.79
2017-01-21T00:57:57.373Z,1030.82
2017-01-21T00:59:06.364Z,1030.88
2017-01-21T01:00:15.359Z,1030.9
2017-01-21T01:01:24.336Z,1030.96
2017-01-21T01:02:33.327Z,1030.93
2017-01-21T01:03:42.367Z,1030.92
2017-01-21T01:04:51.367Z,1030.89
2017-01-21T01:06:00.345Z,1030.86
2017-01-21T01:07:09.343Z,1030.85
2017-01-21T01:08:18.319Z,1030.89
2017-01-21T01:09:27.328Z,1030.9
2017-01-21T01:10:36.307Z,1030.89
2017-01-21T01:11:45.288Z,1030.87
2017-01-21T01:12:54.271Z,1030.91
2017-01-21T01:14:03.256Z,1030.89
2017-01-21T01:15:12.237Z,1030.92
2017-01-21T01:16:21.218Z,1030.92
2017-01-21T01:17:30.218Z,1030.91
2017-01-21T01:18:39.202Z,1030.9
2017-01-21T01:19:48.186Z,1030.9
2017-01-21T01:20:57.170Z,1030.93
2017-01-21T01:22:06.149Z,1030.92
2017-01-21T01:23:15.136Z,1030.94
2017-01-21T01:24:24.149Z,1030.89
2017-01-21T01:25:33.150Z,1030.94
2017-01-21T01:26:42.125Z,1030.92
2017-01-21T01:27:51.125Z,1030.96
2017-01-21T01:29:00.124Z,1030.96
2017-01-21T01:30:09.111Z,1030.94
2017-01-21T01:31:18.100Z,1030.98
2017-01-21T01:32:27.089Z,1031.03
2017-01-21T01:33:36.071Z,1031.09
2017-01-21T01:34:45.058Z,1031.05
2017-01-21T01:35:54.054Z,1031.07
2017-01-21T01:37:03.037Z,1031.06
2017-01-21T01:38:12.032Z,1031.06
2017-01-21T01:39:21.005Z,1031.07
2017-01-21T01:40:29.986Z,1031.07
2017-01-21T01:41:38.981Z,1031.08
2017-01-21T01:42:47.962Z,1031.08
2017-01-21T01:43:56.945Z,1031.09
2017-01-21T01:45:05.947Z,1031.1
2017-01-21T01:46:14.928Z,1031.08
2017-01-21T01:47:23.905Z,1031.11
2017-01-21T01:48:32.886Z,1031.06
2017-01-21T01:49:41.883Z,1031.08
2017-01-21T01:50:50.861Z,1031.06
2017-01-21T01:51:59.852Z,1031.03
2017-01-21T01:53:08.843Z,1031.01
2017-01-21T01:54:17.831Z,1031.01
2017-01-21T01:55:26.817Z,1031.01
2017-01-21T01:56:35.801Z,1030.97
2017-01-21T01:57:44.790Z,1030.95
2017-01-21T01:58:53.772Z,1030.99
2017-01-21T02:00:02.756Z,1030.97
2017-01-21T02:01:11.742Z,1030.94
2017-01-21T02:02:20.735Z,1030.93
2017-01-21T02:03:30.133Z,1030.95
2017-01-21T02:04:39.127Z,1030.89
2017-01-21T02:05:48.126Z,1030.9
2017-01-21T02:06:57.132Z,1030.89
2017-01-21T02:08:06.125Z,1030.88
2017-01-21T02:09:15.115Z,1030.89
2017-01-21T02:10:24.127Z,1030.88
2017-01-21T02:11:33.106Z,1030.91
2017-01-21T02:12:42.098Z,1030.94
2017-01-21T02:13:51.088Z,1030.9
2017-01-21T02:15:00.069Z,1030.86
2017-01-21T02:16:09.051Z,1030.84
2017-01-21T02:17:18.023Z,1030.82
2017-01-21T02:18:27.018Z,1030.78
2017-01-21T02:19:35.995Z,1030.75
2017-01-21T02:20:44.986Z,1030.81
2017-01-21T02:21:53.971Z,1030.83
2017-01-21T02:23:02.957Z,1030.82
2017-01-21T02:24:11.930Z,1030.77
2017-01-21T02:25:20.916Z,1030.74
2017-01-21T02:26:29.912Z,1030.77
2017-01-21T02:27:38.883Z,1030.73
2017-01-21T02:28:47.869Z,1030.69
2017-01-21T02:29:56.849Z,1030.7
2017-01-21T02:31:05.847Z,1030.67
2017-01-21T02:32:14.838Z,1030.64
2017-01-21T02:33:23.838Z,1030.64
2017-01-21T02:34:32.827Z,1030.6
2017-01-21T02:35:41.817Z,1030.61
2017-01-21T02:36:50.807Z,1030.62
2017-01-21T02:37:59.797Z,1030.57
2017-01-21T02:39:08.793Z,1030.62
2017-01-21T02:40:17.774Z,1030.64
2017-01-21T02:41:26.762Z,1030.59
2017-01-21T02:42:35.751Z,1030.62
2017-01-21T02:43:44.741Z,1030.59
2017-01-21T02:44:53.727Z,1030.57
2017-01-21T02:46:02.704Z,1030.54
2017-01-21T02:47:11.698Z,1030.46
2017-01-21T02:48:20.681Z,1030.48
2017-01-21T02:49:29.657Z,1030.44
2017-01-21T02:50:38.643Z,1030.4
2017-01-21T02:51:47.618Z,1030.45
2017-01-21T02:52:56.601Z,1030.43
2017-01-21T02:54:05.593Z,1030.42
2017-01-21T02:55:14.579Z,1030.42
2017-01-21T02:56:23.573Z,1030.39
2017-01-21T02:57:32.569Z,1030.33
2017-01-21T02:58:41.552Z,1030.34
2017-01-21T02:59:50.527Z,1030.29
2017-01-21T03:00:59.512Z,1030.31
2017-01-21T03:02:08.509Z,1030.25
2017-01-21T03:03:17.489Z,1030.28
2017-01-21T03:04:26.480Z,1030.29
2017-01-21T03:05:35.468Z,1030.3
2017-01-21T03:06:44.456Z,1030.31
2017-01-21T03:07:53.437Z,1030.25
2017-01-21T03:09:02.422Z,1030.25
2017-01-21T03:10:11.414Z,1030.3
2017-01-21T03:11:20.392Z,1030.26
2017-01-21T03:12:29.390Z,1030.26
2017-01-21T03:13:38.389Z,1030.21
2017-01-21T03:14:47.376Z,1030.21
2017-01-21T03:15:56.363Z,1030.23
2017-01-21T03:17:05.336Z,1030.19
2017-01-21T03:18:14.323Z,1030.21
2017-01-21T03:19:23.299Z,1030.18
2017-01-21T03:20:32.287Z,1030.2
2017-01-21T03:21:41.269Z,1030.18
2017-01-21T03:22:50.265Z,1030.15
2017-01-21T03:23:59.265Z,1030.14
2017-01-21T03:25:08.234Z,1030.17
2017-01-21T03:26:17.230Z,1030.16
2017-01-21T03:27:26.214Z,1030.15
2017-01-21T03:28:35.197Z,1030.15
2017-01-21T03:29:44.197Z,1030.13
2017-01-21T03:30:53.209Z,1030.09
2017-01-21T03:32:02.185Z,1030.12
2017-01-21T03:33:11.181Z,1030.13
2017-01-21T03:34:20.175Z,1030.2
2017-01-21T03:35:29.149Z,1030.22
2017-01-21T03:36:38.138Z,1030.19
2017-01-21T03:37:47.119Z,1030.18
2017-01-21T03:38:56.106Z,1030.15
2017-01-21T03:40:05.091Z,1030.16
2017-01-21T03:41:14.079Z,1030.15
2017-01-21T03:42:23.096Z,1030.2
2017-01-21T03:43:32.082Z,1030.17
2017-01-21T03:44:41.112Z,1030.14
2017-01-21T03:45:50.091Z,1030.12
2017-01-21T03:46:59.093Z,1030.15
2017-01-21T03:48:08.076Z,1030.11
2017-01-21T03:49:17.061Z,1030.14
2017-01-21T03:50:26.096Z,1030.16
2017-01-21T03:51:35.509Z,1030.12
2017-01-21T03:52:44.496Z,1030.07
2017-01-21T03:53:53.477Z,1030.12
2017-01-21T03:55:02.470Z,1030.16
2017-01-21T03:56:11.454Z,1030.19
2017-01-21T03:57:20.443Z,1030.21
2017-01-21T03:58:29.429Z,1030.22
2017-01-21T03:59:38.440Z,1030.25
2017-01-21T04:00:47.426Z,1030.21
2017-01-21T04:01:56.444Z,1030.17
2017-01-21T04:03:05.438Z,1030.11
2017-01-21T04:04:14.417Z,1030.1
2017-01-21T04:05:23.407Z,1030.11
2017-01-21T04:06:32.389Z,1030.14
2017-01-21T04:07:41.376Z,1030.12
2017-01-21T04:08:50.359Z,1030.16
2017-01-21T04:09:59.350Z,1030.17
2017-01-21T04:11:08.364Z,1030.17
2017-01-21T04:12:17.339Z,1030.21
2017-01-21T04:13:26.331Z,1030.21
2017-01-21T04:14:35.303Z,1030.22
2017-01-21T04:15:44.280Z,1030.11
2017-01-21T04:16:53.261Z,1030.1
2017-01-21T04:18:02.252Z,1030.1
2017-01-21T04:19:11.238Z,1030.08
2017-01-21T04:20:20.227Z,1030.09
2017-01-21T04:21:29.209Z,1030.11
2017-01-21T04:22:38.198Z,1030.09
2017-01-21T04:23:47.228Z,1030.04
2017-01-21T04:24:56.201Z,1030.07
2017-01-21T04:26:05.173Z,1030.06
2017-01-21T04:27:14.156Z,1030.09
2017-01-21T04:28:23.141Z,1030.14
2017-01-21T04:29:32.134Z,1030.13
2017-01-21T04:30:41.122Z,1030.15
2017-01-21T04:31:50.113Z,1030.14
2017-01-21T04:32:59.090Z,1030.17
2017-01-21T04:34:08.089Z,1030.18
2017-01-21T04:35:17.064Z,1030.18
2017-01-21T04:36:26.072Z,1030.13
2017-01-21T04:37:35.053Z,1030.12
2017-01-21T04:38:44.030Z,1030.11
2017-01-21T04:39:53.008Z,1030.13
2017-01-21T04:41:01.998Z,1030.09
2017-01-21T04:42:10.985Z,1030.13
2017-01-21T04:43:19.969Z,1030.12
2017-01-21T04:44:28.953Z,1030.1
2017-01-21T04:45:37.927Z,1030.09
2017-01-21T04:46:46.908Z,1030.06
2017-01-21T04:47:55.902Z,1030.06
2017-01-21T04:49:04.879Z,1030.02
2017-01-21T04:50:13.866Z,1030.05
2017-01-21T04:51:22.843Z,1030.08
2017-01-21T04:52:31.827Z,1030.11
2017-01-21T04:53:40.917Z,1030.14
2017-01-21T04:54:49.895Z,1030.13
2017-01-21T04:55:58.885Z,1030.12
2017-01-21T04:57:07.865Z,1030.13
2017-01-21T04:58:16.856Z,1030.13
2017-01-21T04:59:25.836Z,1030.12
2017-01-21T05:00:34.818Z,1030.19
2017-01-21T05:01:43.810Z,1030.19
2017-01-21T05:02:52.799Z,1030.19
2017-01-21T05:04:01.787Z,1030.21
2017-01-21T05:05:10.783Z,1030.18
2017-01-21T05:06:19.769Z,1030.21
2017-01-21T05:07:28.746Z,1030.2
2017-01-21T05:08:37.737Z,1030.2
2017-01-21T05:09:46.735Z,1030.17
2017-01-21T05:10:55.709Z,1030.2
2017-01-21T05:12:04.700Z,1030.18
2017-01-21T05:13:13.672Z,1030.24
2017-01-21T05:14:22.665Z,1030.26
2017-01-21T05:15:31.634Z,1030.21
2017-01-21T05:16:40.630Z,1030.24
2017-01-21T05:17:49.617Z,1030.25
2017-01-21T05:18:58.623Z,1030.21
2017-01-21T05:20:07.593Z,1030.2
2017-01-21T05:21:16.567Z,1030.21
2017-01-21T05:22:25.604Z,1030.22
2017-01-21T05:23:34.603Z,1030.23
2017-01-21T05:24:43.580Z,1030.22
2017-01-21T05:25:52.581Z,1030.18
2017-01-21T05:27:01.551Z,1030.21
2017-01-21T05:28:10.541Z,1030.24
2017-01-21T05:29:19.529Z,1030.26
2017-01-21T05:30:28.510Z,1030.27
2017-01-21T05:31:37.499Z,1030.29
2017-01-21T05:32:46.483Z,1030.3
2017-01-21T05:33:55.480Z,1030.26
2017-01-21T05:35:04.462Z,1030.26
2017-01-21T05:36:13.458Z,1030.22
2017-01-21T05:37:22.444Z,1030.22
2017-01-21T05:38:31.423Z,1030.25
2017-01-21T05:39:40.413Z,1030.23
2017-01-21T05:40:49.397Z,1030.28
2017-01-21T05:41:58.378Z,1030.26
2017-01-21T05:43:07.356Z,1030.28
2017-01-21T05:44:16.370Z,1030.3
2017-01-21T05:45:25.358Z,1030.27
2017-01-21T05:46:34.332Z,1030.31
2017-01-21T05:47:43.315Z,1030.33
2017-01-21T05:48:52.291Z,1030.34
2017-01-21T05:50:01.271Z,1030.37
2017-01-21T05:51:10.261Z,1030.38
2017-01-21T05:52:19.239Z,1030.36
2017-01-21T05:53:28.253Z,1030.34
2017-01-21T05:54:37.241Z,1030.34
2017-01-21T05:55:46.258Z,1030.36
2017-01-21T05:56:55.294Z,1030.41
2017-01-21T05:58:04.275Z,1030.41
2017-01-21T05:59:13.261Z,1030.41
2017-01-21T06:00:22.240Z,1030.39
2017-01-21T06:01:31.231Z,1030.4
2017-01-21T06:02:40.222Z,1030.35
2017-01-21T06:03:49.205Z,1030.35
2017-01-21T06:04:58.191Z,1030.35
2017-01-21T06:06:07.167Z,1030.38
2017-01-21T06:07:16.153Z,1030.36
2017-01-21T06:08:25.129Z,1030.39
2017-01-21T06:09:34.122Z,1030.38
2017-01-21T06:10:43.092Z,1030.34
2017-01-21T06:11:52.092Z,1030.35
2017-01-21T06:13:01.072Z,1030.39
2017-01-21T06:14:10.066Z,1030.4
2017-01-21T06:15:19.047Z,1030.44
2017-01-21T06:16:28.066Z,1030.45
2017-01-21T06:17:37.057Z,1030.44
2017-01-21T06:18:46.153Z,1030.41
2017-01-21T06:19:55.135Z,1030.42
2017-01-21T06:21:04.159Z,1030.49
2017-01-21T06:22:13.453Z,1030.51
2017-01-21T06:23:22.453Z,1030.45
2017-01-21T06:24:31.475Z,1030.48
2017-01-21T06:25:40.626Z,1030.44
2017-01-21T06:26:49.602Z,1030.42
2017-01-21T06:27:58.575Z,1030.43
2017-01-21T06:29:07.564Z,1030.46
2017-01-21T06:30:16.545Z,1030.44
2017-01-21T06:31:25.525Z,1030.44
2017-01-21T06:32:34.569Z,1030.44
2017-01-21T06:33:43.550Z,1030.43
2017-01-21T06:34:52.541Z,1030.47
2017-01-21T06:36:01.562Z,1030.54
2017-01-21T06:37:10.551Z,1030.46
2017-01-21T06:38:19.531Z,1030.5
2017-01-21T06:39:28.523Z,1030.47
2017-01-21T06:40:37.504Z,1030.54
2017-01-21T06:41:46.522Z,1030.54
2017-01-21T06:42:55.510Z,1030.55
2017-01-21T06:44:04.501Z,1030.56
2017-01-21T06:45:13.488Z,1030.46
2017-01-21T06:46:22.468Z,1030.48
2017-01-21T06:47:31.461Z,1030.43
2017-01-21T06:48:40.443Z,1030.47
2017-01-21T06:49:49.426Z,1030.48
2017-01-21T06:50:58.394Z,1030.48
2017-01-21T06:52:07.385Z,1030.46
2017-01-21T06:53:16.372Z,1030.44
2017-01-21T06:54:25.349Z,1030.49
2017-01-21T06:55:34.336Z,1030.45
2017-01-21T06:56:43.327Z,1030.5
2017-01-21T06:57:52.315Z,1030.59
2017-01-21T06:59:01.531Z,1030.53
2017-01-21T07:00:10.506Z,1030.51
2017-01-21T07:01:19.489Z,1030.59
2017-01-21T07:02:28.565Z,1030.55
2017-01-21T07:03:37.554Z,1030.56
2017-01-21T07:04:46.534Z,1030.57
2017-01-21T07:05:55.521Z,1030.56
2017-01-21T07:07:04.508Z,1030.57
2017-01-21T07:08:13.517Z,1030.53
2017-01-21T07:09:22.516Z,1030.53
2017-01-21T07:10:31.491Z,1030.53
2017-01-21T07:11:40.466Z,1030.53
2017-01-21T07:12:49.445Z,1030.52
2017-01-21T07:13:58.441Z,1030.48
2017-01-21T07:15:07.429Z,1030.47
2017-01-21T07:16:16.419Z,1030.5
2017-01-21T07:17:25.407Z,1030.45
2017-01-21T07:18:34.379Z,1030.46
2017-01-21T07:19:43.374Z,1030.47
2017-01-21T07:20:52.351Z,1030.49
2017-01-21T07:22:01.329Z,1030.45
2017-01-21T07:23:10.308Z,1030.39
2017-01-21T07:24:19.291Z,1030.43
2017-01-21T07:25:28.281Z,1030.4
2017-01-21T07:26:37.276Z,1030.43
2017-01-21T07:27:46.268Z,1030.43
2017-01-21T07:28:55.246Z,1030.46
2017-01-21T07:30:04.217Z,1030.5
2017-01-21T07:31:13.209Z,1030.54
2017-01-21T07:32:22.186Z,1030.54
2017-01-21T07:33:31.183Z,1030.46
2017-01-21T07:34:40.166Z,1030.49
2017-01-21T07:35:49.147Z,1030.48
2017-01-21T07:36:58.207Z,1030.49
2017-01-21T07:38:07.186Z,1030.45
2017-01-21T07:39:16.162Z,1030.46
2017-01-21T07:40:25.143Z,1030.51
2017-01-21T07:41:34.124Z,1030.56
2017-01-21T07:42:43.093Z,1030.62
2017-01-21T07:43:52.080Z,1030.63
2017-01-21T07:45:01.074Z,1030.65
2017-01-21T07:46:10.058Z,1030.54
2017-01-21T07:47:19.049Z,1030.57
2017-01-21T07:48:28.026Z,1030.54
2017-01-21T07:49:37.008Z,1030.52
2017-01-21T07:50:45.984Z,1030.58
2017-01-21T07:51:54.976Z,1030.6
2017-01-21T07:53:03.953Z,1030.61
2017-01-21T07:54:12.957Z,1030.68
2017-01-21T07:55:21.944Z,1030.66
2017-01-21T07:56:30.922Z,1030.69
2017-01-21T07:57:39.899Z,1030.74
2017-01-21T07:58:48.896Z,1030.71
2017-01-21T07:59:57.885Z,1030.74
2017-01-21T08:01:06.870Z,1030.78
2017-01-21T08:02:15.865Z,1030.69
2017-01-21T08:03:24.850Z,1030.73
2017-01-21T08:04:33.833Z,1030.69
2017-01-21T08:05:42.816Z,1030.71
2017-01-21T08:06:51.837Z,1030.77
2017-01-21T08:08:00.817Z,1030.77
2017-01-21T08:09:09.801Z,1030.76
2017-01-21T08:10:18.783Z,1030.76
2017-01-21T08:11:27.763Z,1030.77
2017-01-21T08:12:36.755Z,1030.75
2017-01-21T08:13:45.730Z,1030.78
2017-01-21T08:14:54.719Z,1030.81
2017-01-21T08:16:03.702Z,1030.79
2017-01-21T08:17:12.702Z,1030.82
2017-01-21T08:18:21.676Z,1030.85
2017-01-21T08:19:30.655Z,1030.85
2017-01-21T08:20:39.647Z,1030.82
2017-01-21T08:21:48.633Z,1030.85
2017-01-21T08:22:57.642Z,1030.85
2017-01-21T08:24:06.627Z,1030.87
2017-01-21T08:25:15.616Z,1030.88
2017-01-21T08:26:24.621Z,1030.9
2017-01-21T08:27:33.609Z,1030.92
2017-01-21T08:28:42.596Z,1030.9
2017-01-21T08:29:51.575Z,1030.91
2017-01-21T08:31:00.567Z,1030.89
2017-01-21T08:32:09.536Z,1030.9
2017-01-21T08:33:18.558Z,1030.91
2017-01-21T08:34:27.740Z,1030.93
2017-01-21T08:35:37.099Z,1030.99
2017-01-21T08:36:46.095Z,1030.99
2017-01-21T08:37:55.082Z,1030.94
2017-01-21T08:39:04.054Z,1030.89
2017-01-21T08:40:13.024Z,1030.89
2017-01-21T08:41:22.028Z,1030.9
2017-01-21T08:42:31.008Z,1030.86
2017-01-21T08:43:39.987Z,1030.88
2017-01-21T08:44:49.037Z,1030.87
2017-01-21T08:45:58.042Z,1030.87
2017-01-21T08:47:07.078Z,1030.89
2017-01-21T08:48:16.921Z,1030.91
2017-01-21T08:49:25.915Z,1030.88
2017-01-21T08:50:34.911Z,1030.88
2017-01-21T08:51:43.994Z,1030.9
2017-01-21T08:52:53.654Z,1030.91
2017-01-21T08:54:02.628Z,1030.87
2017-01-21T08:55:11.683Z,1030.88
2017-01-21T08:56:20.673Z,1030.9
2017-01-21T08:57:30.113Z,1030.88
2017-01-21T08:58:39.812Z,1030.9
2017-01-21T08:59:49.179Z,1030.91
2017-01-21T09:00:58.832Z,1030.96
2017-01-21T09:02:07.830Z,1030.95
2017-01-21T09:03:17.260Z,1031.01
2017-01-21T09:04:26.257Z,1031.01
2017-01-21T09:05:35.235Z,1030.96
2017-01-21T09:06:45.139Z,1030.95
2017-01-21T09:07:54.127Z,1030.96
2017-01-21T09:09:03.879Z,1030.94
2017-01-21T09:10:13.159Z,1030.93
2017-01-21T09:11:22.752Z,1030.89
2017-01-21T09:12:31.742Z,1030.92
2017-01-21T09:13:40.728Z,1030.94
2017-01-21T09:14:49.719Z,1030.95
2017-01-21T09:15:58.690Z,1030.94
2017-01-21T09:17:07.673Z,1030.98
2017-01-21T09:18:16.660Z,1030.99
2017-01-21T09:19:25.640Z,1030.98
2017-01-21T09:20:34.628Z,1031.01
2017-01-21T09:21:43.609Z,1031
2017-01-21T09:22:52.606Z,1030.97
2017-01-21T09:24:01.583Z,1030.95
2017-01-21T09:25:10.575Z,1030.89
2017-01-21T09:26:19.556Z,1030.93
2017-01-21T09:27:28.539Z,1030.93
2017-01-21T09:28:37.530Z,1030.95
2017-01-21T09:29:46.534Z,1030.98
2017-01-21T09:30:55.533Z,1031
2017-01-21T09:32:04.535Z,1031.02
2017-01-21T09:33:13.519Z,1031.02
2017-01-21T09:34:22.508Z,1031.02
2017-01-21T09:35:31.491Z,1031.09
2017-01-21T09:36:40.483Z,1031.02
2017-01-21T09:37:49.479Z,1031
2017-01-21T09:38:58.478Z,1030.96
2017-01-21T09:40:07.453Z,1030.96
2017-01-21T09:41:16.438Z,1030.88
2017-01-21T09:42:25.435Z,1030.92
2017-01-21T09:43:34.437Z,1030.9
2017-01-21T09:44:43.424Z,1030.89
2017-01-21T09:45:52.406Z,1030.94
2017-01-21T09:47:01.393Z,1030.91
2017-01-21T09:48:10.378Z,1030.93
2017-01-21T09:49:19.359Z,1030.91
2017-01-21T09:50:28.370Z,1030.88
2017-01-21T09:51:37.343Z,1030.9
2017-01-21T09:52:46.347Z,1030.9
2017-01-21T09:53:55.333Z,1030.97
2017-01-21T09:55:04.315Z,1030.95
2017-01-21T09:56:13.291Z,1030.93
2017-01-21T09:57:22.275Z,1030.94
2017-01-21T09:58:31.265Z,1030.91
2017-01-21T09:59:40.264Z,1030.91
2017-01-21T10:00:49.308Z,1030.95
2017-01-21T10:01:58.439Z,1030.95
2017-01-21T10:03:07.440Z,1030.95
2017-01-21T10:04:16.654Z,1030.92
2017-01-21T10:05:25.719Z,1030.88
2017-01-21T10:06:34.731Z,1030.88
2017-01-21T10:07:43.746Z,1030.87
2017-01-21T10:08:52.794Z,1030.86
2017-01-21T10:10:01.930Z,1030.88
2017-01-21T10:11:10.968Z,1030.88
2017-01-21T10:12:20.155Z,1030.88
2017-01-21T10:13:29.366Z,1030.95
2017-01-21T10:14:38.377Z,1030.95
2017-01-21T10:15:47.446Z,1030.98
2017-01-21T10:16:56.572Z,1030.95
2017-01-21T10:18:05.567Z,1030.9
2017-01-21T10:19:14.668Z,1030.88
2017-01-21T10:20:23.890Z,1030.89
2017-01-21T10:21:32.976Z,1030.93
2017-01-21T10:22:41.998Z,1030.83
2017-01-21T10:23:51.126Z,1030.82
2017-01-21T10:25:00.372Z,1030.82
2017-01-21T10:26:09.442Z,1030.78
2017-01-21T10:27:18.428Z,1030.76
2017-01-21T10:28:27.539Z,1030.8
2017-01-21T10:29:36.835Z,1030.79
2017-01-21T10:30:45.911Z,1030.76
2017-01-21T10:31:54.933Z,1030.79
2017-01-21T10:33:04.343Z,1030.82
2017-01-21T10:34:13.384Z,1030.76
2017-01-21T10:35:22.406Z,1030.74
2017-01-21T10:36:31.401Z,1030.72
2017-01-21T10:37:40.512Z,1030.76
2017-01-21T10:38:49.880Z,1030.75
2017-01-21T10:39:58.937Z,1030.71
2017-01-21T10:41:07.958Z,1030.73
2017-01-21T10:42:17.004Z,1030.74
2017-01-21T10:43:26.586Z,1030.68
2017-01-21T10:44:35.747Z,1030.67
2017-01-21T10:45:44.917Z,1030.63
2017-01-21T10:46:54.005Z,1030.61
2017-01-21T10:48:03.060Z,1030.63
2017-01-21T10:49:12.501Z,1030.62
2017-01-21T10:50:21.878Z,1030.63
2017-01-21T10:51:31.230Z,1030.62
2017-01-21T10:52:40.402Z,1030.66
2017-01-21T10:53:49.668Z,1030.62
2017-01-21T10:54:59.032Z,1030.61
2017-01-21T10:56:08.157Z,1030.6
2017-01-21T10:57:17.218Z,1030.6
2017-01-21T10:58:26.688Z,1030.56
2017-01-21T10:59:35.858Z,1030.56
2017-01-21T11:00:44.878Z,1030.49
2017-01-21T11:01:54.072Z,1030.51
2017-01-21T11:03:03.114Z,1030.51
2017-01-21T11:04:12.713Z,1030.56
2017-01-21T11:05:22.017Z,1030.57
2017-01-21T11:06:31.032Z,1030.57
2017-01-21T11:07:40.244Z,1030.57
2017-01-21T11:08:49.246Z,1030.58
2017-01-21T11:09:58.827Z,1030.55
2017-01-21T11:11:07.892Z,1030.54
2017-01-21T11:12:16.941Z,1030.53
2017-01-21T11:13:27.168Z,1030.54
2017-01-21T11:14:36.610Z,1030.49
2017-01-21T11:15:45.669Z,1030.5
2017-01-21T11:16:54.845Z,1030.45
2017-01-21T11:18:03.910Z,1030.43
2017-01-21T11:19:12.966Z,1030.43
2017-01-21T11:20:22.042Z,1030.43
2017-01-21T11:21:31.058Z,1030.4
2017-01-21T11:22:40.099Z,1030.4
2017-01-21T11:23:49.112Z,1030.37
2017-01-21T11:24:58.101Z,1030.41
2017-01-21T11:26:07.090Z,1030.42
2017-01-21T11:27:16.075Z,1030.37
2017-01-21T11:28:25.067Z,1030.32
2017-01-21T11:29:34.078Z,1030.32
2017-01-21T11:30:43.065Z,1030.32
2017-01-21T11:31:52.054Z,1030.34
2017-01-21T11:33:01.033Z,1030.31
2017-01-21T11:34:10.287Z,1030.34
2017-01-21T11:35:19.270Z,1030.36
2017-01-21T11:36:28.261Z,1030.33
2017-01-21T11:37:37.249Z,1030.33
2017-01-21T11:38:46.241Z,1030.33
2017-01-21T11:39:55.230Z,1030.3
2017-01-21T11:41:04.220Z,1030.33
2017-01-21T11:42:13.201Z,1030.28
2017-01-21T11:43:22.198Z,1030.29
2017-01-21T11:44:31.193Z,1030.24
2017-01-21T11:45:40.177Z,1030.25
2017-01-21T11:46:49.174Z,1030.25
2017-01-21T11:47:58.191Z,1030.27
2017-01-21T11:49:07.164Z,1030.27
2017-01-21T11:50:16.174Z,1030.28
2017-01-21T11:51:25.163Z,1030.29
2017-01-21T11:52:34.139Z,1030.26
2017-01-21T11:53:43.601Z,1030.29
2017-01-21T11:54:52.582Z,1030.25
2017-01-21T11:56:01.582Z,1030.29
2017-01-21T11:57:10.571Z,1030.3
2017-01-21T11:58:19.565Z,1030.31
2017-01-21T11:59:28.540Z,1030.29
2017-01-21T12:00:37.537Z,1030.25
2017-01-21T12:01:46.545Z,1030.24
2017-01-21T12:02:55.533Z,1030.26
2017-01-21T12:04:04.555Z,1030.27
2017-01-21T12:05:13.537Z,1030.24
2017-01-21T12:06:22.514Z,1030.24
2017-01-21T12:07:31.512Z,1030.23
2017-01-21T12:08:40.538Z,1030.23
2017-01-21T12:09:49.528Z,1030.19
2017-01-21T12:10:58.516Z,1030.19
2017-01-21T12:12:07.504Z,1030.17
2017-01-21T12:13:16.480Z,1030.19
2017-01-21T12:14:25.471Z,1030.17
2017-01-21T12:15:34.476Z,1030.19
2017-01-21T12:16:43.468Z,1030.17
2017-01-21T12:17:52.492Z,1030.18
2017-01-21T12:19:01.493Z,1030.17
2017-01-21T12:20:10.486Z,1030.18
2017-01-21T12:21:19.484Z,1030.16
2017-01-21T12:22:28.482Z,1030.12
2017-01-21T12:23:37.923Z,1030.11
2017-01-21T12:24:46.902Z,1030.13
2017-01-21T12:25:55.897Z,1030.11
2017-01-21T12:27:04.905Z,1030.1
2017-01-21T12:28:13.911Z,1030.09
2017-01-21T12:29:22.902Z,1030.11
2017-01-21T12:30:31.887Z,1030.1
2017-01-21T12:31:40.862Z,1030.11
2017-01-21T12:32:49.848Z,1030.08
2017-01-21T12:33:58.831Z,1030.04
2017-01-21T12:35:07.823Z,1030.07
2017-01-21T12:36:16.841Z,1030.02
2017-01-21T12:37:25.820Z,1030.02
2017-01-21T12:38:34.813Z,1029.97
2017-01-21T12:39:43.816Z,1029.96
2017-01-21T12:40:52.802Z,1029.94
2017-01-21T12:42:01.794Z,1029.94
2017-01-21T12:43:10.775Z,1029.89
2017-01-21T12:44:19.771Z,1029.93
2017-01-21T12:45:28.763Z,1029.91
2017-01-21T12:46:37.757Z,1029.93
2017-01-21T12:47:46.739Z,1029.91
2017-01-21T12:48:55.734Z,1029.88
2017-01-21T12:50:04.725Z,1029.93
2017-01-21T12:51:13.712Z,1029.9
2017-01-21T12:52:22.687Z,1029.89
2017-01-21T12:53:31.684Z,1029.89
2017-01-21T12:54:40.690Z,1029.87
2017-01-21T12:55:49.674Z,1029.85
2017-01-21T12:56:58.676Z,1029.85
2017-01-21T12:58:07.652Z,1029.86
2017-01-21T12:59:16.653Z,1029.84
2017-01-21T13:00:25.649Z,1029.83
2017-01-21T13:01:34.633Z,1029.81
2017-01-21T13:02:43.616Z,1029.78
2017-01-21T13:03:52.612Z,1029.79
2017-01-21T13:05:01.592Z,1029.74
2017-01-21T13:06:10.579Z,1029.72
2017-01-21T13:07:19.611Z,1029.71
2017-01-21T13:08:28.599Z,1029.71
2017-01-21T13:09:37.611Z,1029.71
2017-01-21T13:10:46.598Z,1029.72
2017-01-21T13:11:55.591Z,1029.71
2017-01-21T13:13:04.583Z,1029.73
2017-01-21T13:14:13.569Z,1029.74
2017-01-21T13:15:22.570Z,1029.7
2017-01-21T13:16:31.561Z,1029.69
2017-01-21T13:17:40.551Z,1029.67
2017-01-21T13:18:49.530Z,1029.66
2017-01-21T13:19:58.515Z,1029.65
2017-01-21T13:21:07.500Z,1029.66
2017-01-21T13:22:16.497Z,1029.67
2017-01-21T13:23:25.490Z,1029.69
2017-01-21T13:24:34.482Z,1029.69
2017-01-21T13:25:43.466Z,1029.68
2017-01-21T13:26:52.443Z,1029.72
2017-01-21T13:28:01.440Z,1029.69
2017-01-21T13:29:10.847Z,1029.71
2017-01-21T13:30:19.834Z,1029.71
2017-01-21T13:31:28.827Z,1029.7
2017-01-21T13:32:37.816Z,1029.7
2017-01-21T13:33:46.815Z,1029.71
2017-01-21T13:34:55.809Z,1029.69
2017-01-21T13:36:04.815Z,1029.71
2017-01-21T13:37:13.791Z,1029.72
2017-01-21T13:38:22.771Z,1029.72
2017-01-21T13:39:31.764Z,1029.72
2017-01-21T13:40:40.761Z,1029.73
2017-01-21T13:41:49.767Z,1029.73
2017-01-21T13:42:58.749Z,1029.72
2017-01-21T13:44:07.749Z,1029.73
2017-01-21T13:45:16.739Z,1029.71
2017-01-21T13:46:25.755Z,1029.69
2017-01-21T13:47:34.739Z,1029.69
2017-01-21T13:48:43.730Z,1029.68
2017-01-21T13:49:52.728Z,1029.66
2017-01-21T13:51:01.750Z,1029.68
2017-01-21T13:52:10.731Z,1029.7
2017-01-21T13:53:19.715Z,1029.69
2017-01-21T13:54:28.710Z,1029.7
2017-01-21T13:55:37.708Z,1029.68
2017-01-21T13:56:46.707Z,1029.66
2017-01-21T13:57:55.680Z,1029.69